Strona główna
METAR-TAF:

METAR-TAF

Lotnisko :

Port lotniczy Kair

Kair, Egipt

Szerokość geograficzna: 30-08N, Długość geograficzna: 031-24E, wysokość: 64 m

Aktualna obserwacja pogody

Raport powstał 38 minut temu, godzina 16:30 UTC
Wiatr 12 kt od północ
Temperatura 15°C
Wilgotność 59%
Ciśnienie 1022 hPa
Widzialność 10 km lub więcej
Rozproszone chmury na wysokości 2500 ft

METAR: HECA 221630Z 01012KT 9999 SCT025 15/07 Q1022 NOSIG

czas: 19:08 (17:08 UTC)

Prognoza

Raport powstał 6 godziny i 8 minut temu, godzina 11:00 UTC
Prognoza ważna od 22 godzina 12 UTC do 23 godzina 18 UTC
Wiatr 13 kt od północny wschód
Widzialność 10 km lub więcej
Brak chmur poniżej 1500 m i brak chmur cumulonimbus

TAF: HECA 221100Z 2212/2318 04013KT CAVOK

Obserwacja i prognoza pogody dla ponad 4000 lotnisk (raport METAR i TAF).

Dostępne stacje oznaczono żółtymi i czerwonymi punktami na mapie.

Najedź kursorem aby zobaczyć nazwę stacji.

Kliknij aby zobaczyć obserwacje i prognozy pogody.

Aby zmienić mapę: kliknij na zielony przycisk z czarnym krzyżykiem, aby powiększyć; na zielony przycisk z myślnikiem, aby pomniejszyć; na zielone strzałki, aby przejść do map sąsiednich.


METAR-TAF: